createdAt,value
2022-12-15T00:00:51.483Z,-3.09
2022-12-15T00:06:11.619Z,-3.06
2022-12-15T00:11:31.843Z,-3.01
2022-12-15T00:16:52.188Z,-2.91
2022-12-15T00:22:12.432Z,-2.89
2022-12-15T00:27:32.721Z,-2.94
2022-12-15T00:32:53.432Z,-3.01
2022-12-15T00:38:13.685Z,-3.03
2022-12-15T00:43:15.249Z,-3.03
2022-12-15T00:48:16.819Z,-3.03
2022-12-15T00:53:38.897Z,-3.05
2022-12-15T00:58:59.115Z,-3.05
2022-12-15T01:04:19.435Z,-3.04
2022-12-15T01:09:39.569Z,-3.06
2022-12-15T01:14:59.904Z,-3.09
2022-12-15T01:20:18.216Z,-3.11
2022-12-15T01:25:22.054Z,-3.08
2022-12-15T01:30:25.862Z,-3.06
2022-12-15T01:35:27.802Z,-3.05
2022-12-15T01:40:47.291Z,-3.05
2022-12-15T01:45:53.362Z,-3.08
2022-12-15T01:50:59.952Z,-3.09
2022-12-15T01:56:05.119Z,-3.09
2022-12-15T02:01:07.392Z,-3.13
2022-12-15T02:06:11.430Z,-3.15
2022-12-15T02:11:31.224Z,-3.14
2022-12-15T02:16:42.100Z,-3.11
2022-12-15T02:22:08.157Z,-3.09
2022-12-15T02:27:22.922Z,-3.07
2022-12-15T02:32:35.005Z,-3.08
2022-12-15T02:37:39.383Z,-3.10
2022-12-15T02:42:47.992Z,-3.07
2022-12-15T02:48:06.794Z,-3.07
2022-12-15T02:53:34.153Z,-3.10
2022-12-15T02:58:54.678Z,-3.07
2022-12-15T03:03:57.958Z,-3.04
2022-12-15T03:08:59.628Z,-3.03
2022-12-15T03:14:01.266Z,-3.06
2022-12-15T03:19:02.831Z,-3.09
2022-12-15T03:24:04.495Z,-3.11
2022-12-15T03:29:06.074Z,-3.12
2022-12-15T03:34:07.652Z,-3.14
2022-12-15T03:39:09.250Z,-3.17
2022-12-15T03:44:11.201Z,-3.19
2022-12-15T03:49:12.869Z,-3.19
2022-12-15T03:54:14.928Z,-3.20
2022-12-15T03:59:16.495Z,-3.21
2022-12-15T04:04:18.054Z,-3.19
2022-12-15T04:09:19.613Z,-3.19
2022-12-15T04:14:21.157Z,-3.23
2022-12-15T04:19:41.862Z,-3.23
2022-12-15T04:25:02.162Z,-3.26
2022-12-15T04:30:22.852Z,-3.28
2022-12-15T04:35:43.118Z,-3.27
2022-12-15T04:41:09.933Z,-3.26
2022-12-15T04:46:30.049Z,-3.25
2022-12-15T04:51:52.381Z,-3.22
2022-12-15T04:57:12.556Z,-3.19
2022-12-15T05:02:32.909Z,-3.17
2022-12-15T05:07:53.020Z,-3.20
2022-12-15T05:13:13.245Z,-3.19
2022-12-15T05:18:35.864Z,-3.17
2022-12-15T05:23:56.075Z,-3.19
2022-12-15T05:29:16.282Z,-3.20
2022-12-15T05:34:29.336Z,-3.18
2022-12-15T05:39:31.178Z,-3.18
2022-12-15T05:44:32.923Z,-3.17
2022-12-15T05:49:35.757Z,-3.16
2022-12-15T05:54:37.459Z,-3.12
2022-12-15T05:59:39.183Z,-3.11
2022-12-15T06:04:43.476Z,-3.11
2022-12-15T06:09:45.425Z,-3.08
2022-12-15T06:14:47.098Z,-3.06
2022-12-15T06:19:51.627Z,-3.02
2022-12-15T06:24:53.183Z,-2.97
2022-12-15T06:29:54.733Z,-2.94
2022-12-15T06:34:56.281Z,-2.94
2022-12-15T06:39:58.083Z,-2.94
2022-12-15T06:44:59.722Z,-2.92
2022-12-15T06:50:02.122Z,-2.93
2022-12-15T06:55:03.968Z,-2.95
2022-12-15T07:00:06.491Z,-2.96
2022-12-15T07:05:09.307Z,-2.96
2022-12-15T07:10:11.429Z,-2.97
2022-12-15T07:15:13.366Z,-2.96
2022-12-15T07:20:15.317Z,-2.97
2022-12-15T07:25:16.962Z,-2.97
2022-12-15T07:30:18.780Z,-2.99
2022-12-15T07:35:20.330Z,-2.98
2022-12-15T07:40:22.049Z,-2.95
2022-12-15T07:45:23.744Z,-2.92
2022-12-15T07:50:25.631Z,-2.87
2022-12-15T07:55:50.203Z,-2.83
2022-12-15T08:00:49.338Z,-2.79
2022-12-15T08:05:50.944Z,-2.73
2022-12-15T08:10:52.784Z,-2.70
2022-12-15T08:15:55.083Z,-2.68
2022-12-15T08:21:02.659Z,-2.74
2022-12-15T08:26:07.737Z,-2.79
2022-12-15T08:31:15.242Z,-2.84
2022-12-15T08:36:18.973Z,-2.88
2022-12-15T08:41:23.649Z,-2.87
2022-12-15T08:46:29.566Z,-2.85
2022-12-15T08:51:32.831Z,-2.87
2022-12-15T08:56:36.082Z,-2.90
2022-12-15T09:01:40.244Z,-2.89
2022-12-15T09:06:42.081Z,-2.90
2022-12-15T09:11:43.636Z,-2.94
2022-12-15T09:16:45.379Z,-3.03
2022-12-15T09:21:48.156Z,-3.08
2022-12-15T09:26:50.101Z,-3.09
2022-12-15T09:31:51.713Z,-3.01
2022-12-15T09:36:56.818Z,-2.92
2022-12-15T09:42:00.628Z,-2.81
2022-12-15T09:47:30.363Z,-2.74
2022-12-15T09:52:38.708Z,-2.66
2022-12-15T09:57:50.024Z,-2.57
2022-12-15T10:03:16.197Z,-2.44
2022-12-15T10:08:20.633Z,-2.43
2022-12-15T10:13:38.527Z,-2.48
2022-12-15T10:19:32.769Z,-2.38
2022-12-15T10:30:15.401Z,-2.20
2022-12-15T10:35:21.961Z,-2.14
2022-12-15T10:40:43.147Z,-2.14
2022-12-15T10:45:44.754Z,-2.10
2022-12-15T10:50:47.152Z,-2.09
2022-12-15T10:56:00.376Z,-2.14
2022-12-15T11:01:08.191Z,-2.16
2022-12-15T11:06:19.718Z,-2.22
2022-12-15T11:11:48.191Z,-2.25
2022-12-15T11:16:58.108Z,-2.25
2022-12-15T11:22:08.394Z,-2.15
2022-12-15T11:27:20.925Z,-2.05
2022-12-15T11:32:33.418Z,-1.95
2022-12-15T11:37:39.395Z,-1.90
2022-12-15T11:42:53.226Z,-1.90
2022-12-15T11:48:01.210Z,-1.83
2022-12-15T11:53:13.646Z,-1.90
2022-12-15T11:58:37.076Z,-1.93
2022-12-15T12:03:54.816Z,-1.99
2022-12-15T12:09:04.675Z,-2.07
2022-12-15T12:14:29.548Z,-2.11
2022-12-15T12:19:37.850Z,-2.08
2022-12-15T12:24:44.800Z,-2.02
2022-12-15T12:29:57.560Z,-1.91
2022-12-15T12:35:31.369Z,-1.95
2022-12-15T12:40:40.800Z,-1.90
2022-12-15T12:45:50.986Z,-1.88
2022-12-15T12:51:09.485Z,-1.90
2022-12-15T12:56:31.149Z,-1.90
2022-12-15T13:01:34.785Z,-1.81
2022-12-15T13:06:36.456Z,-1.76
2022-12-15T13:11:53.029Z,-1.68
2022-12-15T13:22:36.901Z,-1.64
2022-12-15T13:27:40.723Z,-1.62
2022-12-15T13:32:51.428Z,-1.60
2022-12-15T13:37:56.281Z,-1.60
2022-12-15T13:43:04.414Z,-1.65
2022-12-15T13:48:29.900Z,-1.71
2022-12-15T13:53:43.338Z,-1.74
2022-12-15T13:58:50.796Z,-1.79
2022-12-15T14:04:12.730Z,-1.92
2022-12-15T14:09:16.944Z,-1.98
2022-12-15T14:14:22.677Z,-2.04
2022-12-15T14:19:24.511Z,-2.06
2022-12-15T14:24:40.846Z,-2.09
2022-12-15T14:29:42.624Z,-2.10
2022-12-15T14:34:45.039Z,-2.09
2022-12-15T14:39:58.230Z,-2.04
2022-12-15T14:44:59.900Z,-1.95
2022-12-15T14:50:03.491Z,-1.89
2022-12-15T14:55:37.911Z,-1.83
2022-12-15T15:00:50.670Z,-1.81
2022-12-15T15:05:58.013Z,-1.81
2022-12-15T15:11:34.136Z,-1.81
2022-12-15T15:16:35.860Z,-1.81
2022-12-15T15:21:37.715Z,-1.82
2022-12-15T15:26:43.245Z,-2.01
2022-12-15T15:31:45.092Z,-2.23
2022-12-15T15:36:47.348Z,-2.50
2022-12-15T15:41:48.959Z,-2.67
2022-12-15T15:46:52.002Z,-2.87
2022-12-15T15:51:56.027Z,-2.96
2022-12-15T15:56:57.577Z,-3.08
2022-12-15T16:01:59.821Z,-3.21
2022-12-15T16:07:01.866Z,-3.33
2022-12-15T16:12:03.722Z,-3.41
2022-12-15T16:17:09.249Z,-3.46
2022-12-15T16:22:18.221Z,-3.53
2022-12-15T16:27:19.781Z,-3.64
2022-12-15T16:32:21.531Z,-3.71
2022-12-15T16:37:27.416Z,-3.81
2022-12-15T16:42:28.938Z,-3.86
2022-12-15T16:47:30.464Z,-3.87
2022-12-15T16:52:32.286Z,-3.93
2022-12-15T16:57:36.219Z,-3.95
2022-12-15T17:02:38.733Z,-3.93
2022-12-15T17:07:41.030Z,-3.89
2022-12-15T17:12:43.458Z,-3.83
2022-12-15T17:17:45.061Z,-3.80
2022-12-15T17:22:50.268Z,-3.78
2022-12-15T17:27:56.077Z,-3.73
2022-12-15T17:32:57.852Z,-3.72
2022-12-15T17:37:59.428Z,-3.69
2022-12-15T17:43:00.996Z,-3.68
2022-12-15T17:48:02.564Z,-3.64
2022-12-15T17:53:05.698Z,-3.61
2022-12-15T17:58:20.927Z,-3.57
2022-12-15T18:03:26.307Z,-3.59
2022-12-15T18:08:28.339Z,-3.56
2022-12-15T18:13:35.259Z,-3.51
2022-12-15T18:18:37.230Z,-3.46
2022-12-15T18:23:38.770Z,-3.42
2022-12-15T18:28:40.854Z,-3.39
2022-12-15T18:33:44.447Z,-3.33
2022-12-15T18:38:46.051Z,-3.33
2022-12-15T18:43:47.808Z,-3.31
2022-12-15T18:48:49.348Z,-3.27
2022-12-15T18:53:51.378Z,-3.23
2022-12-15T18:58:52.967Z,-3.15
2022-12-15T19:03:54.496Z,-3.09
2022-12-15T19:08:56.132Z,-3.00
2022-12-15T19:13:59.315Z,-2.94
2022-12-15T19:19:19.460Z,-2.91
2022-12-15T19:24:45.973Z,-2.86
2022-12-15T19:29:48.248Z,-2.84
2022-12-15T19:34:50.232Z,-2.83
2022-12-15T19:39:53.115Z,-2.83
2022-12-15T19:44:54.637Z,-2.86
2022-12-15T19:49:56.245Z,-2.85
2022-12-15T19:54:57.874Z,-2.88
2022-12-15T19:59:59.402Z,-2.87
2022-12-15T20:05:03.316Z,-2.90
2022-12-15T20:10:22.039Z,-2.94
2022-12-15T20:15:26.356Z,-3.00
2022-12-15T20:20:29.201Z,-3.00
2022-12-15T20:25:34.501Z,-3.01
2022-12-15T20:30:36.039Z,-3.00
2022-12-15T20:35:37.876Z,-2.99
2022-12-15T20:40:39.510Z,-2.97
2022-12-15T20:45:41.575Z,-2.96
2022-12-15T20:50:48.184Z,-2.96
2022-12-15T20:55:53.375Z,-2.94
2022-12-15T21:00:54.990Z,-3.02
2022-12-15T21:05:58.653Z,-3.01
2022-12-15T21:11:20.551Z,-3.01
2022-12-15T21:16:26.055Z,-3.03
2022-12-15T21:21:31.402Z,-3.06
2022-12-15T21:26:33.160Z,-3.07
2022-12-15T21:31:34.731Z,-3.09
2022-12-15T21:36:37.722Z,-3.09
2022-12-15T21:41:42.886Z,-3.09
2022-12-15T21:46:44.468Z,-3.11
2022-12-15T21:51:56.810Z,-3.13
2022-12-15T21:57:02.797Z,-3.19
2022-12-15T22:02:26.154Z,-3.25
2022-12-15T22:07:27.786Z,-3.29
2022-12-15T22:12:29.351Z,-3.32
2022-12-15T22:17:32.313Z,-3.37
2022-12-15T22:22:33.830Z,-3.42
2022-12-15T22:27:35.372Z,-3.42
2022-12-15T22:32:36.920Z,-3.42
2022-12-15T22:37:38.449Z,-3.43
2022-12-15T22:42:44.104Z,-3.43
2022-12-15T22:47:49.572Z,-3.44
2022-12-15T22:58:23.711Z,-3.46
2022-12-15T23:03:29.463Z,-3.46
2022-12-15T23:08:33.997Z,-3.46
2022-12-15T23:13:35.661Z,-3.49
2022-12-15T23:18:37.306Z,-3.51
2022-12-15T23:23:38.869Z,-3.50
2022-12-15T23:28:41.193Z,-3.53
2022-12-15T23:33:42.719Z,-3.59
2022-12-15T23:38:44.727Z,-3.61
2022-12-15T23:43:46.459Z,-3.69
2022-12-15T23:48:48.028Z,-3.67
2022-12-15T23:53:49.681Z,-3.70
2022-12-15T23:58:59.713Z,-3.73
